Aviation Digital Data Service (ADDS)

Output produced by METARs form (1159 UTC 24 October 2014)
found at http://www.aviationweather.gov/adds/metars/
 
KSBY 241154Z 29008KT 10SM OVC038 14/07 A2990 RMK AO2 SLP128 T01390067 10144 20111 53009
KSBY 241134Z 2412/2512 30007KT P6SM SCT050 
     FM241400 31012G20KT P6SM SCT040 SCT150 
     FM242200 29009KT P6SM SKC